sensor_id;sensor_type;location;lat;lon;timestamp;P1;durP1;ratioP1;P2;durP2;ratioP2
13331;SDS011;6735;51.456;12.626;2023-08-08T00:00:59;4.30;;;2.50;;
13331;SDS011;6735;51.456;12.626;2023-08-08T00:03:24;3.77;;;2.20;;
13331;SDS011;6735;51.456;12.626;2023-08-08T00:05:50;3.20;;;1.97;;
13331;SDS011;6735;51.456;12.626;2023-08-08T00:08:15;5.77;;;2.80;;
13331;SDS011;6735;51.456;12.626;2023-08-08T00:10:41;3.80;;;2.70;;
13331;SDS011;6735;51.456;12.626;2023-08-08T00:13:06;10.70;;;3.50;;
13331;SDS011;6735;51.456;12.626;2023-08-08T00:15:32;4.00;;;2.40;;
13331;SDS011;6735;51.456;12.626;2023-08-08T00:17:57;6.07;;;3.17;;
13331;SDS011;6735;51.456;12.626;2023-08-08T00:20:23;4.20;;;2.50;;
13331;SDS011;6735;51.456;12.626;2023-08-08T00:22:48;4.13;;;2.30;;
13331;SDS011;6735;51.456;12.626;2023-08-08T00:25:14;5.33;;;2.40;;
13331;SDS011;6735;51.456;12.626;2023-08-08T00:27:39;4.07;;;2.27;;
13331;SDS011;6735;51.456;12.626;2023-08-08T00:30:09;4.67;;;2.70;;
13331;SDS011;6735;51.456;12.626;2023-08-08T00:32:38;11.83;;;3.17;;
13331;SDS011;6735;51.456;12.626;2023-08-08T00:35:04;4.53;;;2.50;;
13331;SDS011;6735;51.456;12.626;2023-08-08T00:37:30;6.33;;;2.80;;
13331;SDS011;6735;51.456;12.626;2023-08-08T00:39:55;5.37;;;2.50;;
13331;SDS011;6735;51.456;12.626;2023-08-08T00:42:20;5.50;;;2.47;;
13331;SDS011;6735;51.456;12.626;2023-08-08T00:44:46;2.70;;;2.30;;
13331;SDS011;6735;51.456;12.626;2023-08-08T00:47:11;4.37;;;2.70;;
13331;SDS011;6735;51.456;12.626;2023-08-08T00:49:37;6.03;;;2.50;;
13331;SDS011;6735;51.456;12.626;2023-08-08T00:52:03;3.60;;;2.80;;
13331;SDS011;6735;51.456;12.626;2023-08-08T00:54:30;3.53;;;2.93;;
13331;SDS011;6735;51.456;12.626;2023-08-08T00:56:56;4.03;;;2.47;;
13331;SDS011;6735;51.456;12.626;2023-08-08T00:59:22;4.93;;;2.63;;
13331;SDS011;6735;51.456;12.626;2023-08-08T01:01:48;11.50;;;3.20;;
13331;SDS011;6735;51.456;12.626;2023-08-08T01:04:14;4.53;;;2.43;;
13331;SDS011;6735;51.456;12.626;2023-08-08T01:09:33;5.20;;;2.40;;
13331;SDS011;6735;51.456;12.626;2023-08-08T01:12:02;3.93;;;2.20;;
13331;SDS011;6735;51.456;12.626;2023-08-08T01:14:30;4.13;;;2.43;;
13331;SDS011;6735;51.456;12.626;2023-08-08T01:16:57;5.13;;;3.07;;
13331;SDS011;6735;51.456;12.626;2023-08-08T01:19:28;4.20;;;2.30;;
13331;SDS011;6735;51.456;12.626;2023-08-08T01:21:57;4.03;;;2.50;;
13331;SDS011;6735;51.456;12.626;2023-08-08T01:24:26;3.50;;;2.17;;
13331;SDS011;6735;51.456;12.626;2023-08-08T01:26:54;5.47;;;2.73;;
13331;SDS011;6735;51.456;12.626;2023-08-08T01:29:20;5.00;;;2.60;;
13331;SDS011;6735;51.456;12.626;2023-08-08T01:31:46;4.83;;;3.07;;
13331;SDS011;6735;51.456;12.626;2023-08-08T01:34:11;4.33;;;2.30;;
13331;SDS011;6735;51.456;12.626;2023-08-08T01:36:59;7.90;;;2.70;;
13331;SDS011;6735;51.456;12.626;2023-08-08T01:39:26;3.50;;;2.37;;
13331;SDS011;6735;51.456;12.626;2023-08-08T01:41:54;6.67;;;2.90;;
13331;SDS011;6735;51.456;12.626;2023-08-08T01:44:21;3.63;;;2.70;;
13331;SDS011;6735;51.456;12.626;2023-08-08T01:46:49;3.07;;;2.60;;
13331;SDS011;6735;51.456;12.626;2023-08-08T01:49:14;3.40;;;2.60;;
13331;SDS011;6735;51.456;12.626;2023-08-08T01:51:43;4.97;;;2.73;;
13331;SDS011;6735;51.456;12.626;2023-08-08T01:54:08;3.67;;;2.83;;
13331;SDS011;6735;51.456;12.626;2023-08-08T01:56:34;3.17;;;2.77;;
13331;SDS011;6735;51.456;12.626;2023-08-08T01:59:00;5.17;;;2.97;;
13331;SDS011;6735;51.456;12.626;2023-08-08T02:01:25;4.03;;;2.90;;
13331;SDS011;6735;51.456;12.626;2023-08-08T02:03:51;3.00;;;2.67;;
13331;SDS011;6735;51.456;12.626;2023-08-08T02:06:16;2.90;;;2.43;;
13331;SDS011;6735;51.456;12.626;2023-08-08T02:08:42;7.03;;;2.83;;
13331;SDS011;6735;51.456;12.626;2023-08-08T02:11:07;4.17;;;2.90;;
13331;SDS011;6735;51.456;12.626;2023-08-08T02:13:33;3.43;;;2.87;;
13331;SDS011;6735;51.456;12.626;2023-08-08T02:15:58;3.23;;;2.70;;
13331;SDS011;6735;51.456;12.626;2023-08-08T02:18:24;4.03;;;2.80;;
13331;SDS011;6735;51.456;12.626;2023-08-08T02:20:49;3.87;;;2.50;;
13331;SDS011;6735;51.456;12.626;2023-08-08T02:23:15;4.93;;;2.53;;
13331;SDS011;6735;51.456;12.626;2023-08-08T02:25:40;3.43;;;2.80;;
13331;SDS011;6735;51.456;12.626;2023-08-08T02:28:06;6.67;;;3.10;;
13331;SDS011;6735;51.456;12.626;2023-08-08T02:30:31;8.60;;;2.70;;
13331;SDS011;6735;51.456;12.626;2023-08-08T02:32:57;3.67;;;2.80;;
13331;SDS011;6735;51.456;12.626;2023-08-08T02:35:22;5.63;;;2.47;;
13331;SDS011;6735;51.456;12.626;2023-08-08T02:37:48;3.50;;;3.10;;
13331;SDS011;6735;51.456;12.626;2023-08-08T02:40:14;3.10;;;2.80;;
13331;SDS011;6735;51.456;12.626;2023-08-08T02:42:39;4.47;;;2.90;;
13331;SDS011;6735;51.456;12.626;2023-08-08T02:45:05;11.93;;;2.93;;
13331;SDS011;6735;51.456;12.626;2023-08-08T02:47:31;4.83;;;2.47;;
13331;SDS011;6735;51.456;12.626;2023-08-08T02:49:57;5.70;;;2.90;;
13331;SDS011;6735;51.456;12.626;2023-08-08T02:52:22;4.30;;;2.43;;
13331;SDS011;6735;51.456;12.626;2023-08-08T02:54:48;6.73;;;2.80;;
13331;SDS011;6735;51.456;12.626;2023-08-08T02:57:13;3.93;;;2.50;;
13331;SDS011;6735;51.456;12.626;2023-08-08T02:59:39;4.63;;;2.90;;
13331;SDS011;6735;51.456;12.626;2023-08-08T03:02:04;5.83;;;2.70;;
13331;SDS011;6735;51.456;12.626;2023-08-08T03:04:30;3.30;;;2.70;;
13331;SDS011;6735;51.456;12.626;2023-08-08T03:06:56;2.73;;;2.40;;
13331;SDS011;6735;51.456;12.626;2023-08-08T03:09:21;2.73;;;2.50;;
13331;SDS011;6735;51.456;12.626;2023-08-08T03:11:47;2.57;;;2.37;;
13331;SDS011;6735;51.456;12.626;2023-08-08T03:14:12;3.70;;;2.50;;
13331;SDS011;6735;51.456;12.626;2023-08-08T03:16:38;5.10;;;3.03;;
13331;SDS011;6735;51.456;12.626;2023-08-08T03:19:04;4.07;;;2.70;;
13331;SDS011;6735;51.456;12.626;2023-08-08T03:21:30;5.20;;;2.67;;
13331;SDS011;6735;51.456;12.626;2023-08-08T03:23:56;3.17;;;2.60;;
13331;SDS011;6735;51.456;12.626;2023-08-08T03:26:22;4.30;;;2.70;;
13331;SDS011;6735;51.456;12.626;2023-08-08T03:28:48;6.50;;;2.87;;
13331;SDS011;6735;51.456;12.626;2023-08-08T03:31:15;2.60;;;2.27;;
13331;SDS011;6735;51.456;12.626;2023-08-08T03:33:42;3.53;;;2.43;;
13331;SDS011;6735;51.456;12.626;2023-08-08T03:36:08;3.37;;;2.60;;
13331;SDS011;6735;51.456;12.626;2023-08-08T03:38:33;3.00;;;2.50;;
13331;SDS011;6735;51.456;12.626;2023-08-08T03:40:59;2.60;;;2.40;;
13331;SDS011;6735;51.456;12.626;2023-08-08T03:43:24;2.90;;;2.70;;
13331;SDS011;6735;51.456;12.626;2023-08-08T03:45:50;2.83;;;2.43;;
13331;SDS011;6735;51.456;12.626;2023-08-08T03:48:15;3.10;;;2.80;;
13331;SDS011;6735;51.456;12.626;2023-08-08T03:50:41;3.03;;;2.73;;
13331;SDS011;6735;51.456;12.626;2023-08-08T03:53:06;3.93;;;2.53;;
13331;SDS011;6735;51.456;12.626;2023-08-08T03:55:32;4.07;;;2.93;;
13331;SDS011;6735;51.456;12.626;2023-08-08T03:57:58;5.93;;;2.70;;
13331;SDS011;6735;51.456;12.626;2023-08-08T04:00:24;4.47;;;2.53;;
13331;SDS011;6735;51.456;12.626;2023-08-08T04:02:49;3.20;;;2.60;;
13331;SDS011;6735;51.456;12.626;2023-08-08T04:05:15;7.73;;;2.50;;
13331;SDS011;6735;51.456;12.626;2023-08-08T04:07:40;5.53;;;2.27;;
13331;SDS011;6735;51.456;12.626;2023-08-08T04:10:06;3.23;;;2.93;;
13331;SDS011;6735;51.456;12.626;2023-08-08T04:12:32;4.10;;;2.50;;
13331;SDS011;6735;51.456;12.626;2023-08-08T04:14:58;5.13;;;2.60;;
13331;SDS011;6735;51.456;12.626;2023-08-08T04:17:23;3.27;;;2.20;;
13331;SDS011;6735;51.456;12.626;2023-08-08T04:19:49;3.33;;;3.03;;
13331;SDS011;6735;51.456;12.626;2023-08-08T04:22:15;2.83;;;2.57;;
13331;SDS011;6735;51.456;12.626;2023-08-08T04:24:41;5.23;;;2.60;;
13331;SDS011;6735;51.456;12.626;2023-08-08T04:27:06;2.73;;;2.53;;
13331;SDS011;6735;51.456;12.626;2023-08-08T04:29:32;2.53;;;2.37;;
13331;SDS011;6735;51.456;12.626;2023-08-08T04:31:57;3.07;;;2.77;;
13331;SDS011;6735;51.456;12.626;2023-08-08T04:34:23;3.57;;;2.60;;
13331;SDS011;6735;51.456;12.626;2023-08-08T04:36:48;4.73;;;2.90;;
13331;SDS011;6735;51.456;12.626;2023-08-08T04:39:14;2.73;;;2.53;;
13331;SDS011;6735;51.456;12.626;2023-08-08T04:41:39;3.40;;;2.90;;
13331;SDS011;6735;51.456;12.626;2023-08-08T04:44:05;4.80;;;2.93;;
13331;SDS011;6735;51.456;12.626;2023-08-08T04:46:30;3.73;;;2.60;;
13331;SDS011;6735;51.456;12.626;2023-08-08T04:48:56;2.67;;;2.47;;
13331;SDS011;6735;51.456;12.626;2023-08-08T04:51:21;2.90;;;2.50;;
13331;SDS011;6735;51.456;12.626;2023-08-08T04:53:47;2.40;;;2.20;;
13331;SDS011;6735;51.456;12.626;2023-08-08T04:56:12;3.00;;;2.40;;
13331;SDS011;6735;51.456;12.626;2023-08-08T04:58:38;4.27;;;2.30;;
13331;SDS011;6735;51.456;12.626;2023-08-08T05:01:03;3.23;;;2.30;;
13331;SDS011;6735;51.456;12.626;2023-08-08T05:03:29;2.40;;;2.20;;
13331;SDS011;6735;51.456;12.626;2023-08-08T05:05:54;3.03;;;2.53;;
13331;SDS011;6735;51.456;12.626;2023-08-08T05:08:20;4.27;;;2.40;;
13331;SDS011;6735;51.456;12.626;2023-08-08T05:10:45;3.70;;;2.60;;
13331;SDS011;6735;51.456;12.626;2023-08-08T05:13:12;2.60;;;2.40;;
13331;SDS011;6735;51.456;12.626;2023-08-08T05:15:37;4.97;;;2.40;;
13331;SDS011;6735;51.456;12.626;2023-08-08T05:18:03;2.10;;;1.90;;
13331;SDS011;6735;51.456;12.626;2023-08-08T05:20:29;2.47;;;2.27;;
13331;SDS011;6735;51.456;12.626;2023-08-08T05:22:55;2.60;;;2.40;;
13331;SDS011;6735;51.456;12.626;2023-08-08T05:25:20;2.90;;;2.57;;
13331;SDS011;6735;51.456;12.626;2023-08-08T05:27:45;2.27;;;2.10;;
13331;SDS011;6735;51.456;12.626;2023-08-08T05:30:11;3.07;;;2.47;;
13331;SDS011;6735;51.456;12.626;2023-08-08T05:32:37;2.93;;;2.10;;
13331;SDS011;6735;51.456;12.626;2023-08-08T05:35:03;2.43;;;2.23;;
13331;SDS011;6735;51.456;12.626;2023-08-08T05:37:29;2.77;;;2.20;;
13331;SDS011;6735;51.456;12.626;2023-08-08T05:39:55;2.50;;;2.30;;
13331;SDS011;6735;51.456;12.626;2023-08-08T05:42:20;2.43;;;2.23;;
13331;SDS011;6735;51.456;12.626;2023-08-08T05:44:46;2.60;;;2.20;;
13331;SDS011;6735;51.456;12.626;2023-08-08T05:47:11;3.17;;;2.03;;
13331;SDS011;6735;51.456;12.626;2023-08-08T05:49:38;2.60;;;2.13;;
13331;SDS011;6735;51.456;12.626;2023-08-08T05:52:06;5.97;;;2.00;;
13331;SDS011;6735;51.456;12.626;2023-08-08T05:54:32;3.20;;;2.57;;
13331;SDS011;6735;51.456;12.626;2023-08-08T05:56:57;3.53;;;2.20;;
13331;SDS011;6735;51.456;12.626;2023-08-08T05:59:22;3.63;;;2.37;;
13331;SDS011;6735;51.456;12.626;2023-08-08T06:01:48;3.07;;;2.20;;
13331;SDS011;6735;51.456;12.626;2023-08-08T06:04:13;2.53;;;2.20;;
13331;SDS011;6735;51.456;12.626;2023-08-08T06:06:39;2.67;;;1.90;;
13331;SDS011;6735;51.456;12.626;2023-08-08T06:09:04;2.10;;;1.90;;
13331;SDS011;6735;51.456;12.626;2023-08-08T06:11:30;2.60;;;2.40;;
13331;SDS011;6735;51.456;12.626;2023-08-08T06:13:56;2.30;;;2.10;;
13331;SDS011;6735;51.456;12.626;2023-08-08T06:16:21;4.00;;;2.10;;
13331;SDS011;6735;51.456;12.626;2023-08-08T06:18:47;2.00;;;1.90;;
13331;SDS011;6735;51.456;12.626;2023-08-08T06:21:12;2.63;;;2.10;;
13331;SDS011;6735;51.456;12.626;2023-08-08T06:23:38;2.70;;;1.97;;
13331;SDS011;6735;51.456;12.626;2023-08-08T06:26:04;2.07;;;1.90;;
13331;SDS011;6735;51.456;12.626;2023-08-08T06:28:29;2.63;;;2.00;;
13331;SDS011;6735;51.456;12.626;2023-08-08T06:30:56;2.43;;;2.17;;
13331;SDS011;6735;51.456;12.626;2023-08-08T06:33:23;2.10;;;1.90;;
13331;SDS011;6735;51.456;12.626;2023-08-08T06:35:48;2.20;;;2.10;;
13331;SDS011;6735;51.456;12.626;2023-08-08T06:38:14;5.00;;;2.30;;
13331;SDS011;6735;51.456;12.626;2023-08-08T06:40:40;3.23;;;1.80;;
13331;SDS011;6735;51.456;12.626;2023-08-08T06:43:05;2.87;;;2.10;;
13331;SDS011;6735;51.456;12.626;2023-08-08T06:45:31;4.73;;;2.20;;
13331;SDS011;6735;51.456;12.626;2023-08-08T06:47:56;4.07;;;1.97;;
13331;SDS011;6735;51.456;12.626;2023-08-08T06:50:22;2.17;;;1.77;;
13331;SDS011;6735;51.456;12.626;2023-08-08T06:52:49;2.37;;;2.10;;
13331;SDS011;6735;51.456;12.626;2023-08-08T06:55:15;4.17;;;2.07;;
13331;SDS011;6735;51.456;12.626;2023-08-08T06:57:40;1.93;;;1.67;;
13331;SDS011;6735;51.456;12.626;2023-08-08T07:00:06;1.90;;;1.70;;
13331;SDS011;6735;51.456;12.626;2023-08-08T07:02:33;3.13;;;2.03;;
13331;SDS011;6735;51.456;12.626;2023-08-08T07:04:59;2.20;;;1.70;;
13331;SDS011;6735;51.456;12.626;2023-08-08T07:07:24;1.63;;;1.50;;
13331;SDS011;6735;51.456;12.626;2023-08-08T07:09:50;2.13;;;1.80;;
13331;SDS011;6735;51.456;12.626;2023-08-08T07:12:15;4.60;;;1.77;;
13331;SDS011;6735;51.456;12.626;2023-08-08T07:14:41;3.00;;;1.70;;
13331;SDS011;6735;51.456;12.626;2023-08-08T07:17:07;2.00;;;1.80;;
13331;SDS011;6735;51.456;12.626;2023-08-08T07:19:32;1.70;;;1.60;;
13331;SDS011;6735;51.456;12.626;2023-08-08T07:21:58;1.90;;;1.80;;
13331;SDS011;6735;51.456;12.626;2023-08-08T07:24:23;2.73;;;1.63;;
13331;SDS011;6735;51.456;12.626;2023-08-08T07:26:53;2.07;;;1.70;;
13331;SDS011;6735;51.456;12.626;2023-08-08T07:29:23;1.80;;;1.70;;
13331;SDS011;6735;51.456;12.626;2023-08-08T07:31:48;1.73;;;1.60;;
13331;SDS011;6735;51.456;12.626;2023-08-08T07:34:14;1.80;;;1.70;;
13331;SDS011;6735;51.456;12.626;2023-08-08T07:36:39;2.23;;;1.70;;
13331;SDS011;6735;51.456;12.626;2023-08-08T07:39:05;1.70;;;1.60;;
13331;SDS011;6735;51.456;12.626;2023-08-08T07:41:30;1.90;;;1.80;;
13331;SDS011;6735;51.456;12.626;2023-08-08T07:43:56;1.70;;;1.60;;
13331;SDS011;6735;51.456;12.626;2023-08-08T07:46:22;2.20;;;1.80;;
13331;SDS011;6735;51.456;12.626;2023-08-08T07:48:48;2.00;;;1.90;;
13331;SDS011;6735;51.456;12.626;2023-08-08T07:51:13;1.87;;;1.50;;
13331;SDS011;6735;51.456;12.626;2023-08-08T07:53:39;4.50;;;2.27;;
13331;SDS011;6735;51.456;12.626;2023-08-08T07:56:04;2.20;;;2.00;;
13331;SDS011;6735;51.456;12.626;2023-08-08T07:58:31;2.10;;;1.90;;
13331;SDS011;6735;51.456;12.626;2023-08-08T08:00:57;3.53;;;1.90;;
13331;SDS011;6735;51.456;12.626;2023-08-08T08:03:24;1.93;;;1.83;;
13331;SDS011;6735;51.456;12.626;2023-08-08T08:05:50;1.70;;;1.60;;
13331;SDS011;6735;51.456;12.626;2023-08-08T08:08:16;2.83;;;1.80;;
13331;SDS011;6735;51.456;12.626;2023-08-08T08:10:42;2.63;;;1.97;;
13331;SDS011;6735;51.456;12.626;2023-08-08T08:13:07;3.60;;;2.33;;
13331;SDS011;6735;51.456;12.626;2023-08-08T08:15:33;3.00;;;1.90;;
13331;SDS011;6735;51.456;12.626;2023-08-08T08:17:58;2.20;;;2.00;;
13331;SDS011;6735;51.456;12.626;2023-08-08T08:20:24;2.73;;;1.87;;
13331;SDS011;6735;51.456;12.626;2023-08-08T08:22:50;1.87;;;1.77;;
13331;SDS011;6735;51.456;12.626;2023-08-08T08:25:15;5.43;;;2.10;;
13331;SDS011;6735;51.456;12.626;2023-08-08T08:27:41;2.30;;;1.83;;
13331;SDS011;6735;51.456;12.626;2023-08-08T08:30:07;2.50;;;2.30;;
13331;SDS011;6735;51.456;12.626;2023-08-08T08:32:35;3.30;;;2.07;;
13331;SDS011;6735;51.456;12.626;2023-08-08T08:35:01;2.87;;;2.30;;
13331;SDS011;6735;51.456;12.626;2023-08-08T08:37:29;2.80;;;2.00;;
13331;SDS011;6735;51.456;12.626;2023-08-08T08:39:55;2.00;;;1.90;;
13331;SDS011;6735;51.456;12.626;2023-08-08T08:42:20;2.80;;;2.47;;
13331;SDS011;6735;51.456;12.626;2023-08-08T08:44:46;2.17;;;1.93;;
13331;SDS011;6735;51.456;12.626;2023-08-08T08:47:14;1.83;;;1.73;;
13331;SDS011;6735;51.456;12.626;2023-08-08T08:49:42;2.37;;;2.17;;
13331;SDS011;6735;51.456;12.626;2023-08-08T08:52:10;2.73;;;2.03;;
13331;SDS011;6735;51.456;12.626;2023-08-08T08:54:36;2.20;;;2.10;;
13331;SDS011;6735;51.456;12.626;2023-08-08T08:57:03;2.57;;;2.20;;
13331;SDS011;6735;51.456;12.626;2023-08-08T08:59:29;2.20;;;1.90;;
13331;SDS011;6735;51.456;12.626;2023-08-08T09:01:55;2.10;;;1.90;;
13331;SDS011;6735;51.456;12.626;2023-08-08T09:04:21;3.50;;;1.80;;
13331;SDS011;6735;51.456;12.626;2023-08-08T09:06:47;2.00;;;1.80;;
13331;SDS011;6735;51.456;12.626;2023-08-08T09:09:14;5.87;;;2.57;;
13331;SDS011;6735;51.456;12.626;2023-08-08T09:11:42;2.03;;;1.90;;
13331;SDS011;6735;51.456;12.626;2023-08-08T09:14:25;2.10;;;1.90;;
13331;SDS011;6735;51.456;12.626;2023-08-08T09:16:52;3.20;;;2.17;;
13331;SDS011;6735;51.456;12.626;2023-08-08T09:19:18;2.00;;;1.90;;
13331;SDS011;6735;51.456;12.626;2023-08-08T09:21:45;2.50;;;2.00;;
13331;SDS011;6735;51.456;12.626;2023-08-08T09:24:11;2.10;;;2.00;;
13331;SDS011;6735;51.456;12.626;2023-08-08T09:26:37;2.33;;;2.03;;
13331;SDS011;6735;51.456;12.626;2023-08-08T09:29:04;1.97;;;1.87;;
13331;SDS011;6735;51.456;12.626;2023-08-08T09:31:30;1.87;;;1.77;;
13331;SDS011;6735;51.456;12.626;2023-08-08T09:33:57;1.57;;;1.47;;
13331;SDS011;6735;51.456;12.626;2023-08-08T09:36:23;1.97;;;1.87;;
13331;SDS011;6735;51.456;12.626;2023-08-08T09:38:49;2.17;;;1.97;;
13331;SDS011;6735;51.456;12.626;2023-08-08T09:41:14;2.43;;;2.00;;
13331;SDS011;6735;51.456;12.626;2023-08-08T09:43:42;3.27;;;2.10;;
13331;SDS011;6735;51.456;12.626;2023-08-08T09:46:09;2.97;;;2.07;;
13331;SDS011;6735;51.456;12.626;2023-08-08T09:48:35;1.80;;;1.70;;
13331;SDS011;6735;51.456;12.626;2023-08-08T09:51:04;2.07;;;1.93;;
13331;SDS011;6735;51.456;12.626;2023-08-08T09:53:30;2.40;;;1.80;;
13331;SDS011;6735;51.456;12.626;2023-08-08T09:55:57;1.87;;;1.77;;
13331;SDS011;6735;51.456;12.626;2023-08-08T09:58:22;1.70;;;1.60;;
13331;SDS011;6735;51.456;12.626;2023-08-08T10:00:52;2.23;;;2.10;;
13331;SDS011;6735;51.456;12.626;2023-08-08T10:03:18;2.60;;;1.90;;
13331;SDS011;6735;51.456;12.626;2023-08-08T10:05:44;1.97;;;1.77;;
13331;SDS011;6735;51.456;12.626;2023-08-08T10:08:09;4.53;;;2.00;;
13331;SDS011;6735;51.456;12.626;2023-08-08T10:10:35;2.43;;;1.77;;
13331;SDS011;6735;51.456;12.626;2023-08-08T10:13:02;2.00;;;1.80;;
13331;SDS011;6735;51.456;12.626;2023-08-08T10:15:28;2.17;;;1.67;;
13331;SDS011;6735;51.456;12.626;2023-08-08T10:17:57;2.00;;;1.80;;
13331;SDS011;6735;51.456;12.626;2023-08-08T10:20:25;2.63;;;1.90;;
13331;SDS011;6735;51.456;12.626;2023-08-08T10:22:51;2.97;;;1.67;;
13331;SDS011;6735;51.456;12.626;2023-08-08T10:25:25;1.80;;;1.70;;
13331;SDS011;6735;51.456;12.626;2023-08-08T10:33:16;2.70;;;1.90;;
13331;SDS011;6735;51.456;12.626;2023-08-08T10:35:59;2.80;;;2.30;;
13331;SDS011;6735;51.456;12.626;2023-08-08T10:38:27;1.83;;;1.70;;
13331;SDS011;6735;51.456;12.626;2023-08-08T10:41:14;2.30;;;2.10;;
13331;SDS011;6735;51.456;12.626;2023-08-08T10:43:53;2.33;;;1.90;;
13331;SDS011;6735;51.456;12.626;2023-08-08T10:46:28;1.70;;;1.57;;
13331;SDS011;6735;51.456;12.626;2023-08-08T10:48:59;3.30;;;1.60;;
13331;SDS011;6735;51.456;12.626;2023-08-08T10:51:39;2.43;;;1.60;;
13331;SDS011;6735;51.456;12.626;2023-08-08T10:54:15;1.70;;;1.60;;
13331;SDS011;6735;51.456;12.626;2023-08-08T10:56:57;3.10;;;1.87;;
13331;SDS011;6735;51.456;12.626;2023-08-08T10:59:25;4.20;;;1.63;;
13331;SDS011;6735;51.456;12.626;2023-08-08T11:02:03;2.23;;;1.80;;
13331;SDS011;6735;51.456;12.626;2023-08-08T11:04:29;2.53;;;1.90;;
13331;SDS011;6735;51.456;12.626;2023-08-08T11:06:57;1.90;;;1.80;;
13331;SDS011;6735;51.456;12.626;2023-08-08T11:09:23;3.03;;;1.80;;
13331;SDS011;6735;51.456;12.626;2023-08-08T11:11:49;4.00;;;2.00;;
13331;SDS011;6735;51.456;12.626;2023-08-08T11:14:15;2.57;;;1.80;;
13331;SDS011;6735;51.456;12.626;2023-08-08T11:16:43;2.00;;;1.80;;
13331;SDS011;6735;51.456;12.626;2023-08-08T11:19:10;3.93;;;1.80;;
13331;SDS011;6735;51.456;12.626;2023-08-08T11:21:37;2.40;;;1.90;;
13331;SDS011;6735;51.456;12.626;2023-08-08T11:24:07;2.50;;;1.83;;
13331;SDS011;6735;51.456;12.626;2023-08-08T11:26:34;2.93;;;2.00;;
13331;SDS011;6735;51.456;12.626;2023-08-08T11:29:01;1.97;;;1.60;;
13331;SDS011;6735;51.456;12.626;2023-08-08T11:31:28;2.47;;;1.70;;
13331;SDS011;6735;51.456;12.626;2023-08-08T11:33:54;1.83;;;1.73;;
13331;SDS011;6735;51.456;12.626;2023-08-08T11:36:21;1.80;;;1.70;;
13331;SDS011;6735;51.456;12.626;2023-08-08T11:38:47;2.33;;;1.60;;
13331;SDS011;6735;51.456;12.626;2023-08-08T11:41:14;4.87;;;2.20;;
13331;SDS011;6735;51.456;12.626;2023-08-08T11:43:41;2.27;;;1.87;;
13331;SDS011;6735;51.456;12.626;2023-08-08T11:46:09;1.90;;;1.80;;
13331;SDS011;6735;51.456;12.626;2023-08-08T11:48:38;1.93;;;1.83;;
13331;SDS011;6735;51.456;12.626;2023-08-08T11:51:05;1.77;;;1.67;;
13331;SDS011;6735;51.456;12.626;2023-08-08T11:53:31;1.70;;;1.60;;
13331;SDS011;6735;51.456;12.626;2023-08-08T11:55:57;1.90;;;1.80;;
13331;SDS011;6735;51.456;12.626;2023-08-08T11:58:24;1.87;;;1.77;;
13331;SDS011;6735;51.456;12.626;2023-08-08T12:00:50;2.00;;;1.90;;
13331;SDS011;6735;51.456;12.626;2023-08-08T12:03:17;3.57;;;2.13;;
13331;SDS011;6735;51.456;12.626;2023-08-08T12:05:47;2.10;;;1.90;;
13331;SDS011;6735;51.456;12.626;2023-08-08T12:08:20;2.30;;;2.07;;
13331;SDS011;6735;51.456;12.626;2023-08-08T12:10:48;3.67;;;2.23;;
13331;SDS011;6735;51.456;12.626;2023-08-08T12:13:21;2.30;;;2.03;;
13331;SDS011;6735;51.456;12.626;2023-08-08T12:15:47;3.67;;;2.27;;
13331;SDS011;6735;51.456;12.626;2023-08-08T12:18:16;2.10;;;1.77;;
13331;SDS011;6735;51.456;12.626;2023-08-08T12:20:43;2.30;;;2.10;;
13331;SDS011;6735;51.456;12.626;2023-08-08T12:23:08;3.07;;;2.10;;
13331;SDS011;6735;51.456;12.626;2023-08-08T12:25:34;5.17;;;2.47;;
13331;SDS011;6735;51.456;12.626;2023-08-08T12:27:59;2.40;;;2.10;;
13331;SDS011;6735;51.456;12.626;2023-08-08T12:30:26;3.97;;;2.27;;
13331;SDS011;6735;51.456;12.626;2023-08-08T12:32:51;4.07;;;2.57;;
13331;SDS011;6735;51.456;12.626;2023-08-08T12:35:18;4.80;;;2.90;;
13331;SDS011;6735;51.456;12.626;2023-08-08T12:37:45;2.73;;;2.50;;
13331;SDS011;6735;51.456;12.626;2023-08-08T12:40:13;3.93;;;2.57;;
13331;SDS011;6735;51.456;12.626;2023-08-08T12:42:39;4.43;;;2.30;;
13331;SDS011;6735;51.456;12.626;2023-08-08T12:45:05;2.77;;;2.20;;
13331;SDS011;6735;51.456;12.626;2023-08-08T12:47:31;2.53;;;2.30;;
13331;SDS011;6735;51.456;12.626;2023-08-08T12:49:57;2.17;;;1.97;;
13331;SDS011;6735;51.456;12.626;2023-08-08T12:52:23;3.73;;;2.00;;
13331;SDS011;6735;51.456;12.626;2023-08-08T12:54:48;2.27;;;1.77;;
13331;SDS011;6735;51.456;12.626;2023-08-08T12:57:14;2.40;;;2.20;;
13331;SDS011;6735;51.456;12.626;2023-08-08T12:59:39;1.80;;;1.70;;
13331;SDS011;6735;51.456;12.626;2023-08-08T13:02:07;1.97;;;1.83;;
13331;SDS011;6735;51.456;12.626;2023-08-08T13:04:33;2.53;;;1.70;;
13331;SDS011;6735;51.456;12.626;2023-08-08T13:06:58;1.87;;;1.70;;
13331;SDS011;6735;51.456;12.626;2023-08-08T13:09:24;2.33;;;1.60;;
13331;SDS011;6735;51.456;12.626;2023-08-08T13:11:50;2.07;;;1.87;;
13331;SDS011;6735;51.456;12.626;2023-08-08T13:14:15;3.03;;;1.80;;
13331;SDS011;6735;51.456;12.626;2023-08-08T13:16:41;2.43;;;1.70;;
13331;SDS011;6735;51.456;12.626;2023-08-08T13:19:07;2.27;;;1.80;;
13331;SDS011;6735;51.456;12.626;2023-08-08T13:21:32;1.80;;;1.70;;
13331;SDS011;6735;51.456;12.626;2023-08-08T13:23:58;2.67;;;1.70;;
13331;SDS011;6735;51.456;12.626;2023-08-08T13:26:23;1.80;;;1.70;;
13331;SDS011;6735;51.456;12.626;2023-08-08T13:28:49;2.50;;;1.90;;
13331;SDS011;6735;51.456;12.626;2023-08-08T13:31:15;2.07;;;1.97;;
13331;SDS011;6735;51.456;12.626;2023-08-08T13:33:40;3.07;;;2.10;;
13331;SDS011;6735;51.456;12.626;2023-08-08T13:36:06;3.00;;;1.70;;
13331;SDS011;6735;51.456;12.626;2023-08-08T13:38:32;2.20;;;2.07;;
13331;SDS011;6735;51.456;12.626;2023-08-08T13:40:57;2.83;;;2.50;;
13331;SDS011;6735;51.456;12.626;2023-08-08T13:43:25;1.90;;;1.80;;
13331;SDS011;6735;51.456;12.626;2023-08-08T13:45:50;2.20;;;2.00;;
13331;SDS011;6735;51.456;12.626;2023-08-08T13:48:16;2.57;;;2.00;;
13331;SDS011;6735;51.456;12.626;2023-08-08T13:50:41;3.80;;;2.30;;
13331;SDS011;6735;51.456;12.626;2023-08-08T13:53:07;4.50;;;2.53;;
13331;SDS011;6735;51.456;12.626;2023-08-08T13:55:32;2.73;;;2.53;;
13331;SDS011;6735;51.456;12.626;2023-08-08T13:58:04;2.93;;;2.37;;
13331;SDS011;6735;51.456;12.626;2023-08-08T14:00:30;3.23;;;2.50;;
13331;SDS011;6735;51.456;12.626;2023-08-08T14:02:56;2.87;;;2.53;;
13331;SDS011;6735;51.456;12.626;2023-08-08T14:05:22;3.20;;;2.60;;
13331;SDS011;6735;51.456;12.626;2023-08-08T14:07:47;3.00;;;2.60;;
13331;SDS011;6735;51.456;12.626;2023-08-08T14:10:13;3.03;;;2.50;;
13331;SDS011;6735;51.456;12.626;2023-08-08T14:12:38;2.77;;;2.50;;
13331;SDS011;6735;51.456;12.626;2023-08-08T14:15:04;4.03;;;2.60;;
13331;SDS011;6735;51.456;12.626;2023-08-08T14:17:31;2.80;;;2.57;;
13331;SDS011;6735;51.456;12.626;2023-08-08T14:19:56;3.30;;;2.80;;
13331;SDS011;6735;51.456;12.626;2023-08-08T14:22:22;3.97;;;2.50;;
13331;SDS011;6735;51.456;12.626;2023-08-08T14:24:47;2.90;;;2.60;;
13331;SDS011;6735;51.456;12.626;2023-08-08T14:27:13;4.30;;;2.73;;
13331;SDS011;6735;51.456;12.626;2023-08-08T14:29:38;4.57;;;2.97;;
13331;SDS011;6735;51.456;12.626;2023-08-08T14:32:04;4.23;;;2.53;;
13331;SDS011;6735;51.456;12.626;2023-08-08T14:34:30;5.03;;;2.80;;
13331;SDS011;6735;51.456;12.626;2023-08-08T14:36:57;5.70;;;2.67;;
13331;SDS011;6735;51.456;12.626;2023-08-08T14:39:24;3.40;;;2.60;;
13331;SDS011;6735;51.456;12.626;2023-08-08T14:41:50;3.80;;;2.60;;
13331;SDS011;6735;51.456;12.626;2023-08-08T14:44:15;3.17;;;2.80;;
13331;SDS011;6735;51.456;12.626;2023-08-08T14:46:41;3.10;;;2.80;;
13331;SDS011;6735;51.456;12.626;2023-08-08T14:49:07;4.77;;;2.90;;
13331;SDS011;6735;51.456;12.626;2023-08-08T14:51:33;2.90;;;2.63;;